Portada
METAR-TAF:

METAR-TAF

Aeroports :

Abadan, Iran

latitud: 30-22N, longitud: 048-15E, altitud: 3 m

Observació

L'informe es va fer fa 32 minuts, a les 22:00 UTC
Vent 2 kt del Sud-Oest
Temperatura 16°C
Humitat 68%
Pressió 1017 hPa
Visibilitat 10 km o més
sense núvols per sota de 1500 mi sense presència de cumulonimbus.

METAR: OIAA 132200Z 22002KT CAVOK 16/10 Q1017

Hora: 02:02 (22:32 UTC)

Pronòstic

L'informe es va fer fa 5 hores i 2 minuts, a les 17:30 UTC
Pronòstic vàlid del 13 a les 18 UTC al 14 a les 24 UTC
Vent 6 kt del Oest
Visibilitat: 7000 m
Temporalment
l' 14 a les 01 UTC al 14 a les 06 UTC
Visibilitat: 4000 m
calitja

TAF: OIAA 131730Z 1318/1424 27006KT 7000 NSC TEMPO 1401/1406 4000 HZ

Observacions i pronòstics meteorològics de més de 4000 aeroports (METAR i TAF).

Les estacions disponibles són els punts grocs i vermells al mapa.

Posi el ratolí al punt desitjat per veure el nom de l'estació.

Feu clic per veure les observacions i els pronòstics meteorològics.

Per canviar el mapa: feu clic els botons verds amb una creu de color negre per apropar; al botó verd amb un guió per allunyar la imatge; o en les fletxes verdes per a mapes adjacents.


METAR-TAF: